Time;durP1;ratioP1;P1;durP2;ratioP2;P2;SDS_P1;SDS_P2;PMS_P1;PMS_P2;Temp;Humidity;BMP_temperature;BMP_pressure;BME280_temperature;BME280_humidity;BME280_pressure;Samples;Min_cycle;Max_cycle;Signal;HPM_P1;HPM_P2
2021/11/08 00:01:05;;;;;;;9.10;1.58;;;;;;;8.37;100.00;100645.72;5196745;28;20699;-76
2021/11/08 00:03:39;;;;;;;11.32;1.80;;;;;;;8.35;100.00;100662.28;5190639;28;20037;-78
2021/11/08 00:06:09;;;;;;;12.05;1.70;;;;;;;8.32;100.00;100660.63;5187178;28;20036;-77
2021/11/08 00:08:40;;;;;;;14.13;1.88;;;;;;;8.36;100.00;100657.03;5191976;28;20029;-77
2021/11/08 00:11:11;;;;;;;10.02;1.65;;;;;;;8.43;100.00;100656.00;5192384;28;20487;-77
2021/11/08 00:13:43;;;;;;;7.60;1.38;;;;;;;8.46;100.00;100657.66;5187751;28;20128;-75
2021/11/08 00:21:30;;;;;;;9.27;1.65;;;;;;;8.50;100.00;100673.16;5189134;28;20036;-77
2021/11/08 00:24:01;;;;;;;8.63;1.52;;;;;;;8.46;100.00;100681.09;5191282;28;20161;-78
2021/11/08 00:26:31;;;;;;;10.40;1.77;;;;;;;8.42;100.00;100674.25;5183570;28;20478;-77
2021/11/08 00:29:02;;;;;;;9.27;1.40;;;;;;;8.51;100.00;100671.41;5193341;28;20022;-77
2021/11/08 00:31:32;;;;;;;11.38;1.63;;;;;;;8.41;100.00;100662.97;5191630;28;20076;-78
2021/11/08 00:34:03;;;;;;;10.18;1.77;;;;;;;8.38;100.00;100670.88;5189503;28;20036;-78
2021/11/08 00:36:33;;;;;;;13.38;1.83;;;;;;;8.40;100.00;100669.06;5186088;28;20431;-78
2021/11/08 00:39:05;;;;;;;10.55;1.80;;;;;;;8.38;100.00;100681.28;5183563;28;20061;-75
2021/11/08 00:41:36;;;;;;;8.43;1.50;;;;;;;8.37;100.00;100676.97;5180906;28;20026;-75
2021/11/08 00:44:07;;;;;;;12.45;1.80;;;;;;;8.40;100.00;100683.84;5184606;28;20029;-77
2021/11/08 00:46:38;;;;;;;11.93;1.90;;;;;;;8.38;100.00;100694.28;5191768;28;20387;-78
2021/11/08 00:49:10;;;;;;;8.73;1.52;;;;;;;8.38;100.00;100691.69;5188940;28;20097;-77
2021/11/08 00:51:43;;;;;;;13.07;1.90;;;;;;;8.44;100.00;100693.28;5184967;28;20057;-77
2021/11/08 00:54:15;;;;;;;5.75;1.17;;;;;;;8.30;100.00;100701.47;5183887;28;20637;-77
2021/11/08 00:56:50;;;;;;;8.02;1.50;;;;;;;8.36;100.00;100706.50;5185403;28;20037;-78
2021/11/08 00:59:20;;;;;;;8.80;1.88;;;;;;;8.29;100.00;100707.56;5194569;28;20029;-76
2021/11/08 01:01:53;;;;;;;9.35;1.58;;;;;;;8.34;100.00;100716.09;5194532;28;20020;-77
2021/11/08 01:04:25;;;;;;;5.30;1.48;;;;;;;8.33;100.00;100709.19;5192239;28;20033;-77
2021/11/08 01:07:00;;;;;;;7.70;1.48;;;;;;;8.27;100.00;100719.75;5187561;28;20017;-78
2021/11/08 01:09:30;;;;;;;8.68;1.50;;;;;;;8.31;100.00;100716.19;5186678;28;20592;-76
2021/11/08 01:12:01;;;;;;;6.93;1.50;;;;;;;8.27;100.00;100718.88;5183880;28;20037;-78
2021/11/08 01:14:31;;;;;;;6.88;1.50;;;;;;;8.32;100.00;100717.88;5193980;28;20033;-79
2021/11/08 01:17:02;;;;;;;13.90;1.83;;;;;;;8.32;100.00;100711.81;5196773;28;20083;-77
2021/11/08 01:19:33;;;;;;;9.68;1.67;;;;;;;8.23;100.00;100718.09;5186986;28;20044;-78
2021/11/08 01:22:06;;;;;;;7.40;1.58;;;;;;;8.21;100.00;100719.88;5193351;28;20025;-78
2021/11/08 01:24:38;;;;;;;8.90;1.70;;;;;;;8.29;100.00;100723.19;5193809;28;20037;-78
2021/11/08 01:27:09;;;;;;;8.82;1.75;;;;;;;8.29;100.00;100724.91;5190935;28;20355;-78
2021/11/08 01:29:39;;;;;;;7.13;1.42;;;;;;;8.28;100.00;100731.88;5198850;28;20029;-76
2021/11/08 01:32:11;;;;;;;7.75;1.50;;;;;;;8.31;100.00;100734.41;5200232;28;20022;-77
2021/11/08 01:34:41;;;;;;;10.63;1.63;;;;;;;8.34;100.00;100741.28;5185943;28;20034;-78
2021/11/08 01:37:11;;;;;;;11.88;1.77;;;;;;;8.35;100.00;100743.00;5178334;28;20038;-76
2021/11/08 01:39:43;;;;;;;4.70;1.33;;;;;;;8.37;100.00;100739.47;5187389;28;20044;-78
2021/11/08 01:42:15;;;;;;;7.68;1.30;;;;;;;8.35;100.00;100749.06;5196145;28;20479;-78
2021/11/08 01:44:45;;;;;;;10.60;1.25;;;;;;;8.39;100.00;100734.22;5194740;28;20096;-76
2021/11/08 01:47:16;;;;;;;9.13;1.75;;;;;;;8.35;100.00;100748.22;5191446;28;20026;-77
2021/11/08 01:49:46;;;;;;;5.45;1.45;;;;;;;8.32;100.00;100751.75;5190836;28;20034;-79
2021/11/08 01:52:17;;;;;;;7.75;1.67;;;;;;;8.26;100.00;100749.28;5191816;28;20036;-79
2021/11/08 01:54:47;;;;;;;9.88;1.70;;;;;;;8.28;100.00;100750.09;5190388;28;20033;-79
2021/11/08 01:57:17;;;;;;;9.90;1.48;;;;;;;8.21;100.00;100751.13;5192103;28;20040;-79
2021/11/08 01:59:48;;;;;;;7.07;1.27;;;;;;;8.28;100.00;100747.50;5191212;28;20033;-77
2021/11/08 02:02:18;;;;;;;12.32;2.13;;;;;;;8.27;100.00;100748.41;5192796;28;20071;-76
2021/11/08 02:04:48;;;;;;;6.90;1.50;;;;;;;8.21;100.00;100761.53;5191748;28;20034;-76
2021/11/08 02:07:18;;;;;;;8.07;1.55;;;;;;;8.27;100.00;100761.41;5199287;28;20371;-76
2021/11/08 02:09:49;;;;;;;6.55;1.67;;;;;;;8.29;100.00;100758.75;5197759;28;20105;-77
2021/11/08 02:12:19;;;;;;;10.40;1.88;;;;;;;8.28;100.00;100752.72;5188128;28;20486;-79
2021/11/08 02:14:50;;;;;;;9.65;1.30;;;;;;;8.36;100.00;100765.56;5195553;28;20125;-78
2021/11/08 02:17:21;;;;;;;9.70;1.65;;;;;;;8.34;100.00;100757.75;5183762;28;20025;-79
2021/11/08 02:19:57;;;;;;;9.88;1.63;;;;;;;8.32;100.00;100764.75;5181292;28;20037;-76
2021/11/08 02:22:29;;;;;;;10.15;1.40;;;;;;;8.30;100.00;100771.75;5182992;28;20049;-78
2021/11/08 02:25:00;;;;;;;5.18;1.27;;;;;;;8.28;100.00;100768.34;5185583;28;20026;-79
2021/11/08 02:27:30;;;;;;;8.18;1.38;;;;;;;8.26;100.00;100771.84;5183307;28;20030;-79
2021/11/08 02:30:01;;;;;;;9.25;1.60;;;;;;;8.22;100.00;100772.81;5183150;28;20057;-79
2021/11/08 02:32:33;;;;;;;11.80;1.90;;;;;;;8.30;100.00;100782.16;5189298;28;20164;-78
2021/11/08 02:35:07;;;;;;;12.10;1.60;;;;;;;8.24;100.00;100779.69;5189820;28;20033;-78
2021/11/08 02:37:38;;;;;;;6.90;1.38;;;;;;;8.20;100.00;100775.44;5186362;28;20049;-78
2021/11/08 02:40:17;;;;;;;11.65;1.65;;;;;;;8.22;100.00;100789.28;5189363;28;20029;-78
2021/11/08 02:42:50;;;;;;;8.57;1.70;;;;;;;8.22;100.00;100786.69;5190457;28;20041;-78
2021/11/08 02:45:24;;;;;;;8.20;1.50;;;;;;;8.19;100.00;100785.91;5194381;28;20163;-78
2021/11/08 02:47:55;;;;;;;10.77;1.85;;;;;;;8.19;100.00;100791.13;5194235;28;21009;-79
2021/11/08 02:50:30;;;;;;;13.43;1.80;;;;;;;8.16;100.00;100797.22;5195416;28;20026;-76
2021/11/08 02:53:01;;;;;;;9.10;1.50;;;;;;;8.08;100.00;100795.66;5192791;28;20029;-78
2021/11/08 02:55:32;;;;;;;9.07;1.60;;;;;;;8.02;100.00;100788.84;5194612;28;20246;-76
2021/11/08 02:58:02;;;;;;;12.25;1.80;;;;;;;7.94;100.00;100798.56;5194582;28;20033;-78
2021/11/08 03:00:33;;;;;;;7.13;1.55;;;;;;;7.85;100.00;100793.56;5200431;28;20112;-79
2021/11/08 03:03:03;;;;;;;8.82;1.60;;;;;;;7.81;100.00;100807.53;5195868;28;20021;-79
2021/11/08 03:05:36;;;;;;;7.47;1.45;;;;;;;7.85;100.00;100798.75;5197961;28;20041;-77
2021/11/08 03:08:09;;;;;;;9.75;1.60;;;;;;;7.86;100.00;100808.28;5195925;28;20030;-77
2021/11/08 03:10:40;;;;;;;6.07;1.40;;;;;;;7.97;100.00;100819.31;5193423;28;20030;-79
2021/11/08 03:13:17;;;;;;;7.53;1.80;;;;;;;8.02;100.00;100811.44;5187917;28;20508;-79
2021/11/08 03:15:53;;;;;;;7.53;1.67;;;;;;;7.99;100.00;100814.94;5195640;28;20044;-79
2021/11/08 03:18:39;;;;;;;9.35;1.90;;;;;;;7.95;100.00;100810.69;5195983;28;20052;-79
2021/11/08 03:21:16;;;;;;;10.13;1.70;;;;;;;7.99;100.00;100812.34;5193500;28;20028;-79
2021/11/08 03:23:49;;;;;;;10.45;1.90;;;;;;;7.98;100.00;100817.56;5195614;28;20533;-75
2021/11/08 03:28:55;;;;;;;8.27;1.75;;;;;;;7.96;100.00;100834.94;5195704;28;20060;-77
2021/11/08 03:31:26;;;;;;;6.28;1.35;;;;;;;7.96;100.00;100833.22;5198865;28;20464;-79
2021/11/08 03:33:58;;;;;;;5.82;1.50;;;;;;;8.04;100.00;100825.25;5194557;28;20268;-77
2021/11/08 03:36:28;;;;;;;10.77;1.90;;;;;;;8.00;100.00;100827.06;5189971;28;20112;-79
2021/11/08 03:38:59;;;;;;;8.13;1.55;;;;;;;8.00;100.00;100839.19;5198798;28;20168;-77
2021/11/08 03:41:29;;;;;;;7.43;1.38;;;;;;;8.04;100.00;100840.88;5184922;28;20025;-77
2021/11/08 03:44:00;;;;;;;11.82;1.85;;;;;;;8.00;100.00;100842.66;5189381;28;20498;-79
2021/11/08 03:46:30;;;;;;;6.82;1.38;;;;;;;8.00;100.00;100847.88;5198196;28;20028;-79
2021/11/08 03:49:01;;;;;;;15.27;1.92;;;;;;;8.07;100.00;100841.63;5194406;28;20063;-79
2021/11/08 03:51:31;;;;;;;6.78;1.70;;;;;;;8.02;100.00;100847.84;5196696;28;20026;-77
2021/11/08 03:54:04;;;;;;;10.10;2.05;;;;;;;8.02;100.00;100853.06;5194438;28;20417;-76
2021/11/08 03:59:07;;;;;;;14.13;1.90;;;;;;;8.03;100.00;100865.19;5176545;28;20066;-80
2021/11/08 04:01:37;;;;;;;14.60;2.08;;;;;;;7.97;100.00;100863.56;5182230;28;20044;-80
2021/11/08 04:04:08;;;;;;;9.15;2.00;;;;;;;7.99;100.00;100868.72;5183198;28;20484;-80
2021/11/08 04:06:41;;;;;;;9.68;1.75;;;;;;;7.96;100.00;100864.44;5181696;28;20394;-80
2021/11/08 04:09:13;;;;;;;8.10;1.42;;;;;;;8.09;100.00;100873.72;5182046;28;20030;-79
2021/11/08 04:11:43;;;;;;;12.60;2.40;;;;;;;7.98;100.00;100872.22;5179008;28;20026;-80
2021/11/08 04:14:15;;;;;;;9.55;2.03;;;;;;;8.14;100.00;100878.81;5176649;28;20044;-79
2021/11/08 04:16:46;;;;;;;12.85;1.90;;;;;;;8.05;100.00;100885.06;5179694;28;20037;-79
2021/11/08 04:19:17;;;;;;;12.10;1.88;;;;;;;7.99;100.00;100880.00;5183542;28;20030;-80
2021/11/08 04:21:48;;;;;;;7.60;1.70;;;;;;;8.07;100.00;100882.44;5182401;28;20098;-80
2021/11/08 04:24:18;;;;;;;10.05;1.88;;;;;;;8.05;100.00;100887.66;5180255;28;20026;-80
2021/11/08 04:26:48;;;;;;;10.43;1.90;;;;;;;7.97;100.00;100881.78;5183613;28;20026;-80
2021/11/08 04:29:18;;;;;;;4.85;1.40;;;;;;;7.91;100.00;100884.47;5181056;28;20034;-80
2021/11/08 04:31:49;;;;;;;7.78;1.73;;;;;;;7.86;100.00;100894.13;5180737;28;20026;-80
2021/11/08 04:34:40;;;;;;;11.70;2.15;;;;;;;8.00;100.00;100893.84;5187023;28;20093;-79
2021/11/08 04:37:27;;;;;;;12.70;1.77;;;;;;;7.91;100.00;100892.28;5186719;28;20033;-80
2021/11/08 04:40:40;;;;;;;12.95;1.83;;;;;;;8.05;100.00;100900.69;5184227;28;20023;-80
2021/11/08 04:43:09;;;;;;;10.38;1.90;;;;;;;8.03;100.00;100897.25;5187033;28;20454;-80
2021/11/08 05:25:09;;;;;;;9.35;2.05;;;;;;;7.94;100.00;100939.09;5182236;28;20034;-80
2021/11/08 05:30:21;;;;;;;11.57;1.58;;;;;;;8.01;100.00;100939.84;5177095;28;20120;-80
2021/11/08 05:32:52;;;;;;;8.45;2.22;;;;;;;7.96;100.00;100945.13;5181745;28;20026;-80
2021/11/08 05:35:22;;;;;;;10.23;2.15;;;;;;;7.94;100.00;100939.09;5181861;28;20081;-80
2021/11/08 05:37:52;;;;;;;9.60;1.92;;;;;;;8.05;100.00;100939.72;5179995;28;20052;-80
2021/11/08 05:40:33;;;;;;;12.15;2.00;;;;;;;8.03;100.00;100940.66;5176106;28;20022;-81
2021/11/08 05:43:06;;;;;;;14.35;1.90;;;;;;;7.92;100.00;100948.69;5175970;28;20026;-80
2021/11/08 05:45:41;;;;;;;10.20;1.75;;;;;;;7.91;100.00;100946.94;5180598;28;20033;-80
2021/11/08 05:48:11;;;;;;;12.93;1.75;;;;;;;7.92;100.00;100958.22;5184763;28;20109;-80
2021/11/08 05:50:43;;;;;;;7.93;1.70;;;;;;;7.94;100.00;100959.91;5178422;28;20562;-80
2021/11/08 05:53:14;;;;;;;10.38;2.22;;;;;;;7.96;100.00;100960.75;5172717;28;20019;-80
2021/11/08 06:51:25;;;;;;;8.70;1.95;;;;;;;7.99;100.00;101011.84;5178450;28;20030;-80
2021/11/08 06:54:00;;;;;;;7.95;1.58;;;;;;;8.06;100.00;101011.72;5179645;28;20041;-80
2021/11/08 06:56:39;;;;;;;10.55;1.73;;;;;;;8.02;100.00;101025.69;5173737;28;20113;-80
2021/11/08 06:59:10;;;;;;;9.65;1.35;;;;;;;8.02;100.00;101017.88;5179458;28;20033;-80
2021/11/08 07:01:44;;;;;;;11.38;1.70;;;;;;;8.05;100.00;101028.22;5173678;28;20026;-80
2021/11/08 07:04:16;;;;;;;6.43;1.60;;;;;;;7.86;100.00;101023.38;5175834;28;20500;-80
2021/11/08 07:06:47;;;;;;;10.25;2.00;;;;;;;7.86;100.00;101032.03;5176610;28;20030;-80
2021/11/08 07:09:18;;;;;;;10.43;1.65;;;;;;;7.84;100.00;101027.75;5176500;28;20061;-80
2021/11/08 07:11:49;;;;;;;9.80;1.63;;;;;;;7.78;100.00;101036.53;5166486;28;20022;-80
2021/11/08 07:14:19;;;;;;;7.55;1.45;;;;;;;7.75;100.00;101041.78;5174543;28;20093;-80
2021/11/08 07:16:50;;;;;;;8.52;1.70;;;;;;;7.85;100.00;101043.31;5174375;28;20034;-80
2021/11/08 07:19:21;;;;;;;6.28;1.58;;;;;;;7.96;100.00;101045.75;5177538;28;20025;-81
2021/11/08 07:21:51;;;;;;;10.20;1.63;;;;;;;7.96;100.00;101044.00;5175556;28;20033;-80
2021/11/08 07:24:22;;;;;;;11.15;2.20;;;;;;;7.84;100.00;101049.41;5177533;28;20458;-80
2021/11/08 07:26:52;;;;;;;6.95;1.40;;;;;;;7.92;100.00;101044.97;5174542;28;20026;-81
2021/11/08 07:29:25;;;;;;;12.13;1.80;;;;;;;7.92;100.00;101047.56;5178725;28;20022;-81
2021/11/08 07:31:57;;;;;;;8.38;1.63;;;;;;;7.96;100.00;101044.00;5174681;28;20414;-80
2021/11/08 07:34:28;;;;;;;7.80;1.88;;;;;;;7.97;100.00;101053.53;5170527;28;20022;-80
2021/11/08 07:36:58;;;;;;;11.27;1.92;;;;;;;7.99;100.00;101064.78;5178345;28;20032;-80
2021/11/08 07:39:29;;;;;;;9.25;1.77;;;;;;;7.99;100.00;101066.50;5173543;28;20057;-80
2021/11/08 07:41:59;;;;;;;7.90;1.70;;;;;;;8.32;100.00;101071.13;5163143;28;20430;-80
2021/11/08 07:44:30;;;;;;;6.35;1.70;;;;;;;8.38;100.00;101071.06;5174211;28;20070;-80
2021/11/08 07:47:01;;;;;;;10.85;1.65;;;;;;;8.41;100.00;101077.03;5176465;28;20033;-80
2021/11/08 07:49:32;;;;;;;8.95;1.80;;;;;;;8.52;100.00;101084.69;5178065;28;20061;-80
2021/11/08 07:52:03;;;;;;;9.82;1.70;;;;;;;8.62;100.00;101092.28;5175565;28;20464;-80
2021/11/08 07:54:33;;;;;;;12.52;1.83;;;;;;;8.65;100.00;101088.75;5177497;28;20042;-80
2021/11/08 07:57:04;;;;;;;5.47;1.42;;;;;;;8.54;100.00;101098.53;5175603;28;20113;-80
2021/11/08 07:59:35;;;;;;;7.80;1.80;;;;;;;8.54;100.00;101101.13;5177832;28;20070;-81
2021/11/08 08:02:05;;;;;;;9.88;2.00;;;;;;;9.07;100.00;101093.94;5176197;28;20030;-81
2021/11/08 08:04:36;;;;;;;9.18;1.65;;;;;;;9.68;98.11;101091.69;5175352;28;20041;-80
2021/11/08 08:07:07;;;;;;;9.57;1.45;;;;;;;9.87;96.34;101099.03;5173496;28;20094;-80
2021/11/08 08:09:38;;;;;;;7.65;1.55;;;;;;;10.31;94.06;101101.41;5175920;28;20033;-80
2021/11/08 08:12:09;;;;;;;5.97;1.63;;;;;;;10.44;94.97;101092.34;5166579;28;20022;-81
2021/11/08 08:14:39;;;;;;;8.60;1.75;;;;;;;10.97;89.32;101093.47;5173408;28;20083;-81
2021/11/08 08:17:09;;;;;;;5.60;1.40;;;;;;;10.97;89.92;101098.69;5175088;28;20030;-81
2021/11/08 08:19:40;;;;;;;9.75;1.90;;;;;;;11.54;88.10;101093.44;5174904;28;20040;-81
2021/11/08 08:22:10;;;;;;;10.23;1.52;;;;;;;11.87;84.43;101092.41;5176053;28;20114;-81
2021/11/08 08:24:40;;;;;;;9.13;1.85;;;;;;;12.43;82.21;101101.84;5174974;28;20038;-81
2021/11/08 08:27:11;;;;;;;7.53;1.63;;;;;;;13.20;79.16;101094.66;5170655;28;20062;-81
2021/11/08 08:29:41;;;;;;;8.70;1.65;;;;;;;13.68;78.83;101105.88;5175046;28;20026;-81
2021/11/08 08:32:11;;;;;;;7.75;1.70;;;;;;;13.17;78.53;101095.63;5172436;28;20053;-80
2021/11/08 08:34:42;;;;;;;8.75;1.60;;;;;;;12.73;79.37;101103.38;5174642;28;20090;-81
2021/11/08 08:37:12;;;;;;;6.70;1.38;;;;;;;11.37;86.95;101106.19;5174451;28;20026;-81
2021/11/08 08:39:42;;;;;;;5.55;1.33;;;;;;;10.93;88.32;101111.03;5177027;28;20073;-81
2021/11/08 08:42:13;;;;;;;9.60;1.80;;;;;;;10.44;91.21;101123.72;5177777;28;20034;-80
2021/11/08 08:44:45;;;;;;;8.82;1.58;;;;;;;10.44;91.92;101128.06;5175614;28;20058;-81
2021/11/08 08:47:16;;;;;;;8.27;1.75;;;;;;;10.32;93.29;101133.63;5176599;28;20033;-80
2021/11/08 08:49:47;;;;;;;7.05;1.80;;;;;;;10.14;95.33;101123.66;5174984;28;21555;-80
2021/11/08 08:52:18;;;;;;;7.45;1.70;;;;;;;10.21;95.03;101125.19;5178520;28;20287;-80
2021/11/08 08:54:49;;;;;;;7.15;1.35;;;;;;;10.77;93.78;101127.16;5175304;28;20033;-80
2021/11/08 08:57:20;;;;;;;6.28;1.30;;;;;;;10.78;93.61;101126.25;5179071;28;20034;-81
2021/11/08 08:59:50;;;;;;;6.43;1.52;;;;;;;10.71;92.41;101128.19;5175067;28;20455;-80
2021/11/08 09:02:21;;;;;;;6.10;1.13;;;;;;;10.65;93.19;101132.75;5179992;28;20041;-81
2021/11/08 09:04:51;;;;;;;8.07;1.55;;;;;;;10.59;93.80;101130.28;5174694;28;20120;-81
2021/11/08 09:07:22;;;;;;;9.25;1.52;;;;;;;10.55;93.75;101134.72;5172304;28;20458;-81
2021/11/08 09:09:52;;;;;;;9.02;1.50;;;;;;;10.25;95.74;101142.50;5173056;28;20180;-81
2021/11/08 09:12:23;;;;;;;13.68;1.85;;;;;;;10.27;95.39;101141.59;5179922;28;20056;-80
2021/11/08 09:14:53;;;;;;;7.85;1.48;;;;;;;10.18;95.98;101141.78;5164510;28;20026;-81
2021/11/08 09:17:23;;;;;;;9.27;2.10;;;;;;;10.15;96.07;101135.81;5169821;28;20030;-80
2021/11/08 09:19:54;;;;;;;9.05;1.75;;;;;;;10.16;95.92;101135.75;5176926;28;20526;-81
2021/11/08 09:22:26;;;;;;;6.20;1.80;;;;;;;10.14;96.38;101141.94;5179919;28;20482;-80
2021/11/08 09:24:56;;;;;;;6.97;1.58;;;;;;;10.12;96.69;101151.53;5172821;28;20030;-80
2021/11/08 09:27:26;;;;;;;8.45;1.48;;;;;;;10.14;96.34;101149.78;5173554;28;20062;-81
2021/11/08 09:29:57;;;;;;;11.43;1.60;;;;;;;10.07;97.59;101145.56;5175215;28;20403;-81
2021/11/08 09:32:27;;;;;;;13.30;1.92;;;;;;;9.97;96.71;101144.06;5173810;28;20589;-80
2021/11/08 09:34:57;;;;;;;9.05;1.70;;;;;;;10.10;97.33;101158.56;5174949;28;20026;-80
2021/11/08 09:37:33;;;;;;;9.40;1.50;;;;;;;10.43;94.84;101142.03;5176788;28;20080;-80
2021/11/08 09:40:05;;;;;;;7.28;1.60;;;;;;;10.59;93.51;101148.56;5180736;28;20033;-80
2021/11/08 09:42:36;;;;;;;11.18;1.83;;;;;;;10.64;95.47;101154.53;5184886;28;20403;-81
2021/11/08 09:45:07;;;;;;;7.97;1.75;;;;;;;10.74;93.90;101142.94;5166562;28;20034;-81
2021/11/08 09:47:38;;;;;;;12.70;1.88;;;;;;;10.70;93.77;101151.78;5180187;28;20029;-81
2021/11/08 09:50:11;;;;;;;6.63;1.52;;;;;;;10.77;93.63;101153.31;5179074;28;20030;-81
2021/11/08 09:52:46;;;;;;;7.68;1.77;;;;;;;10.83;93.45;101153.16;5182892;28;20029;-81
2021/11/08 09:55:23;;;;;;;7.00;1.30;;;;;;;11.08;91.41;101147.22;5173289;28;20061;-80
2021/11/08 09:57:53;;;;;;;7.45;1.90;;;;;;;11.27;90.71;101141.38;5175430;28;20268;-81
2021/11/08 10:00:36;;;;;;;7.78;1.65;;;;;;;11.14;90.02;101155.72;5175119;28;20030;-80
2021/11/08 10:03:20;;;;;;;7.35;1.73;;;;;;;11.18;90.52;101146.03;5175577;28;20133;-80
2021/11/08 10:05:53;;;;;;;7.00;1.38;;;;;;;11.14;89.73;101153.09;5177364;28;20022;-80
2021/11/08 10:08:27;;;;;;;6.55;1.42;;;;;;;11.32;91.44;101149.97;5177304;28;20022;-81
2021/11/08 10:11:00;;;;;;;8.35;1.55;;;;;;;11.19;90.47;101159.06;5171446;28;20273;-81
2021/11/08 10:13:32;;;;;;;9.88;1.98;;;;;;;11.05;91.27;101163.84;5180828;28;20104;-80
2021/11/08 10:16:07;;;;;;;9.95;1.80;;;;;;;10.98;90.80;101164.06;5174444;28;20392;-81
2021/11/08 10:18:40;;;;;;;10.27;2.28;;;;;;;10.96;91.56;101167.59;5175361;28;20125;-81
2021/11/08 10:21:13;;;;;;;8.82;1.90;;;;;;;10.96;91.80;101170.22;5175433;28;20042;-81
2021/11/08 10:23:49;;;;;;;7.50;1.65;;;;;;;10.95;91.95;101164.13;5175792;28;20030;-80
2021/11/08 10:26:22;;;;;;;14.23;3.17;;;;;;;11.23;91.35;101167.66;5171018;28;20041;-81
2021/11/08 10:29:05;;;;;;;6.32;1.40;;;;;;;11.17;92.12;101163.50;5162566;28;20039;-80
2021/11/08 10:31:42;;;;;;;7.95;1.65;;;;;;;11.13;91.42;101169.69;5165853;28;20034;-81
2021/11/08 10:34:14;;;;;;;10.15;2.00;;;;;;;10.88;91.49;101172.19;5165375;28;20049;-81
2021/11/08 10:36:54;;;;;;;7.95;2.00;;;;;;;11.03;90.40;101177.84;5169112;28;20191;-81
2021/11/08 10:39:24;;;;;;;11.90;1.88;;;;;;;11.04;91.00;101177.81;5170770;28;20109;-80
2021/11/08 10:41:55;;;;;;;10.05;2.22;;;;;;;11.02;91.84;101176.13;5168947;28;20503;-80
2021/11/08 10:44:25;;;;;;;8.63;1.58;;;;;;;11.11;92.37;101171.50;5170910;28;20061;-80
2021/11/08 10:47:05;;;;;;;9.23;2.17;;;;;;;11.08;91.51;101181.22;5169908;28;20060;-81
2021/11/08 10:49:39;;;;;;;10.63;2.97;;;;;;;10.85;92.20;101182.75;5170350;28;20038;-81
2021/11/08 10:52:14;;;;;;;9.05;2.38;;;;;;;10.60;92.52;101181.66;5170635;28;20073;-80
2021/11/08 10:54:53;;;;;;;8.13;1.77;;;;;;;10.52;92.57;101175.78;5167694;28;20030;-80
2021/11/08 10:57:27;;;;;;;11.30;2.00;;;;;;;10.57;92.77;101187.84;5168626;28;20407;-80
2021/11/08 11:00:00;;;;;;;10.73;1.80;;;;;;;10.53;92.43;101186.19;5166097;28;20495;-81
2021/11/08 11:02:31;;;;;;;9.15;2.20;;;;;;;10.64;93.37;101193.75;5168910;28;20051;-80
2021/11/08 11:05:12;;;;;;;10.38;1.92;;;;;;;10.59;92.19;101193.00;5167868;28;20022;-79
2021/11/08 11:07:43;;;;;;;6.32;1.70;;;;;;;10.64;92.13;101194.63;5167142;28;20030;-80
2021/11/08 11:10:19;;;;;;;9.18;2.05;;;;;;;10.67;92.14;101198.91;5169758;28;20032;-81
2021/11/08 11:12:50;;;;;;;7.93;1.65;;;;;;;10.68;92.03;101190.16;5168023;28;20026;-81
2021/11/08 11:15:24;;;;;;;9.48;1.80;;;;;;;10.68;91.72;101193.63;5168622;28;20030;-79
2021/11/08 11:17:59;;;;;;;6.75;1.83;;;;;;;10.70;91.57;101186.59;5167764;28;20554;-81
2021/11/08 11:20:34;;;;;;;7.03;1.92;;;;;;;10.78;91.71;101197.72;5171275;28;20578;-81
2021/11/08 11:23:16;;;;;;;8.48;2.60;;;;;;;10.78;91.74;101194.25;5169198;28;20509;-80
2021/11/08 11:25:52;;;;;;;9.82;1.83;;;;;;;10.93;91.67;101201.69;5167589;28;20038;-80
2021/11/08 11:28:26;;;;;;;9.32;2.10;;;;;;;10.84;94.01;101187.09;5169650;28;20026;-80
2021/11/08 11:30:57;;;;;;;8.05;2.25;;;;;;;10.77;91.92;101192.53;5167614;28;20220;-81
2021/11/08 11:33:29;;;;;;;9.20;1.98;;;;;;;10.79;91.37;101193.34;5169459;28;20029;-80
2021/11/08 11:36:10;;;;;;;7.95;2.03;;;;;;;10.86;91.90;101189.69;5166090;28;20029;-80
2021/11/08 11:38:48;;;;;;;8.82;2.17;;;;;;;10.78;91.29;101191.63;5170022;28;20318;-81
2021/11/08 11:41:22;;;;;;;7.97;2.60;;;;;;;10.87;91.49;101186.16;5167329;28;20284;-81
2021/11/08 11:43:59;;;;;;;7.18;2.33;;;;;;;10.92;92.12;101187.75;5167945;28;20030;-80
2021/11/08 11:46:36;;;;;;;9.70;2.10;;;;;;;10.86;91.32;101171.38;5168921;28;20061;-80
2021/11/08 11:49:08;;;;;;;12.63;2.70;;;;;;;10.96;91.58;101175.44;5169672;28;20439;-81
2021/11/08 11:51:41;;;;;;;7.80;3.03;;;;;;;10.93;92.41;101171.16;5168320;28;20628;-80
2021/11/08 11:54:14;;;;;;;10.77;2.70;;;;;;;11.02;91.49;101181.38;5167677;28;20030;-80
2021/11/08 11:56:46;;;;;;;10.55;1.90;;;;;;;11.04;90.22;101176.94;5164673;28;20026;-80
2021/11/08 11:59:17;;;;;;;7.75;1.88;;;;;;;11.04;90.48;101169.97;5170063;28;20026;-80
2021/11/08 12:01:48;;;;;;;8.23;1.63;;;;;;;11.14;92.04;101171.41;5168396;28;20449;-81
2021/11/08 12:04:20;;;;;;;6.40;1.63;;;;;;;11.26;91.70;101170.22;5172138;28;20049;-81
2021/11/08 12:06:57;;;;;;;9.27;2.80;;;;;;;11.21;90.13;101170.34;5170425;28;20038;-81
2021/11/08 12:09:30;;;;;;;9.45;2.35;;;;;;;11.28;91.24;101169.25;5174938;28;20030;-81
2021/11/08 12:12:00;;;;;;;9.48;1.98;;;;;;;11.28;90.29;101174.50;5174132;28;20022;-81
2021/11/08 12:14:33;;;;;;;10.05;1.98;;;;;;;11.30;90.18;101166.63;5172237;28;20033;-81
2021/11/08 12:17:06;;;;;;;10.32;1.92;;;;;;;11.36;89.97;101172.53;5173056;28;20362;-81
2021/11/08 12:19:42;;;;;;;10.02;1.88;;;;;;;11.19;89.46;101182.63;5173752;28;20033;-81
2021/11/08 12:22:19;;;;;;;8.65;1.77;;;;;;;11.24;89.36;101182.50;5173105;28;20022;-81
2021/11/08 12:25:01;;;;;;;9.68;2.00;;;;;;;11.20;90.10;101175.63;5171920;28;20030;-81
2021/11/08 12:27:37;;;;;;;8.13;2.10;;;;;;;11.17;90.34;101168.72;5172875;28;20092;-81
2021/11/08 12:30:26;;;;;;;7.57;1.73;;;;;;;11.15;90.72;101178.38;5174890;28;20050;-81
2021/11/08 12:33:03;;;;;;;10.82;2.40;;;;;;;11.23;90.77;101171.16;5171922;28;20085;-81
2021/11/08 12:35:39;;;;;;;7.53;1.92;;;;;;;11.23;90.17;101168.53;5172012;28;20031;-81
2021/11/08 12:38:18;;;;;;;8.52;1.70;;;;;;;11.27;90.97;101167.53;5173215;28;20034;-81
2021/11/08 12:40:50;;;;;;;7.65;1.70;;;;;;;11.26;90.06;101160.59;5173893;28;20120;-81
2021/11/08 12:43:25;;;;;;;6.95;1.88;;;;;;;11.19;90.99;101156.47;5173580;28;20026;-81
2021/11/08 12:46:09;;;;;;;10.68;2.13;;;;;;;11.20;90.62;101155.56;5171216;28;20037;-82
2021/11/08 12:48:40;;;;;;;10.85;1.98;;;;;;;11.14;91.26;101149.63;5178870;28;20030;-81
2021/11/08 12:51:14;;;;;;;8.20;2.10;;;;;;;11.12;90.13;101141.81;5177602;28;20032;-81
2021/11/08 12:53:47;;;;;;;6.50;1.92;;;;;;;10.95;91.69;101147.56;5179381;28;20061;-81
2021/11/08 12:56:25;;;;;;;8.55;2.20;;;;;;;11.05;90.08;101144.66;5179600;28;20452;-81
2021/11/08 12:59:00;;;;;;;9.60;2.20;;;;;;;11.05;91.65;101149.88;5185706;28;20033;-81
2021/11/08 13:01:41;;;;;;;;;;;;;;;11.14;90.37;101150.47;5179000;28;20292;-81
2021/11/08 13:04:14;;;;;;;7.75;1.90;;;;;;;11.11;91.06;101149.72;5182057;28;19921;-81
2021/11/08 13:06:47;;;;;;;7.75;2.13;;;;;;;11.13;90.68;101150.53;5182162;28;20033;-81
2021/11/08 13:09:22;;;;;;;7.72;1.75;;;;;;;11.05;91.16;101160.34;5185469;28;20038;-81
2021/11/08 13:11:55;;;;;;;7.50;1.80;;;;;;;11.21;91.16;101164.25;5181768;28;20044;-81
2021/11/08 13:14:35;;;;;;;8.90;2.30;;;;;;;11.03;91.99;101163.03;5183870;28;20386;-81
2021/11/08 13:17:07;;;;;;;8.10;1.80;;;;;;;11.12;90.68;101157.53;5182045;28;20024;-81
2021/11/08 13:19:52;;;;;;;10.05;1.85;;;;;;;10.92;90.23;101164.22;5183338;28;20042;-81
2021/11/08 13:22:28;;;;;;;13.23;2.20;;;;;;;11.00;90.67;101164.03;5182615;28;20054;-81
2021/11/08 13:25:11;;;;;;;9.13;2.13;;;;;;;11.00;90.68;101157.00;5177338;28;20481;-81
2021/11/08 13:27:50;;;;;;;12.38;2.97;;;;;;;11.04;91.22;101159.50;5183086;28;20309;-81
2021/11/08 13:30:31;;;;;;;10.02;2.15;;;;;;;11.04;90.38;101162.13;5183927;28;20286;-81
2021/11/08 13:33:05;;;;;;;15.57;3.55;;;;;;;10.98;90.29;101157.94;5178694;28;20029;-81
2021/11/08 13:35:36;;;;;;;15.20;2.90;;;;;;;10.95;90.77;101163.25;5184696;28;20030;-81